Terminal Aerodrome Forecast
Issued by NWS Atlanta, GA

Home | Current Version | Previous Version | Text Only | Print | Product List | Glossary On
Versions: 1 2 3 4 5 6 7 8 9 10 11 12 13 14 15 16 17 18 19 20 21 22 23 24 25 26 27 28 29 30 31 32 33 34 35 36 37 38 39 40 41 42 43 44 45 46 47
143
FTUS42 KFFC 231733
TAFATL
TAF
KATL 231733Z 2318/2424 24007KT 6SM -SHRA SCT009 BKN045
      TEMPO 2318/2319 4SM -SHRA BKN009
     FM232000 24006KT P6SM VCSH SCT015 BKN035
     FM240000 20005KT P6SM VCSH SCT025 BKN040
     FM240600 21005KT P6SM OVC006
     FM241200 21008KT 6SM -SHRA OVC006
      TEMPO 2414/2417 VRB15G25KT 4SM -TSRA BKN008CB
     FM241700 23015G25KT P6SM VCSH BKN025=

USA.gov is the U.S. government's official web portal to all federal, state and local government web resources and services.